createdAt,value
2023-11-21T00:01:05.804Z,67.66
2023-11-21T00:03:33.007Z,65.92
2023-11-21T00:05:59.844Z,65.91
2023-11-21T00:08:26.312Z,66.87
2023-11-21T00:10:52.931Z,65.82
2023-11-21T00:13:19.707Z,67.27
2023-11-21T00:15:46.274Z,68.99
2023-11-21T00:18:12.989Z,67.48
2023-11-21T00:20:39.546Z,69.10
2023-11-21T00:23:06.144Z,67.66
2023-11-21T00:25:33.037Z,68.62
2023-11-21T00:27:59.869Z,68.68
2023-11-21T00:30:26.455Z,67.06
2023-11-21T00:32:53.034Z,68.90
2023-11-21T00:35:19.627Z,67.44
2023-11-21T00:37:46.162Z,69.22
2023-11-21T00:40:13.503Z,68.44
2023-11-21T00:42:40.352Z,67.86
2023-11-21T00:45:08.020Z,69.10
2023-11-21T00:47:34.789Z,70.03
2023-11-21T00:50:01.613Z,68.01
2023-11-21T00:52:28.382Z,67.55
2023-11-21T00:54:55.075Z,70.01
2023-11-21T00:57:21.674Z,67.06
2023-11-21T00:59:48.193Z,68.19
2023-11-21T01:02:14.786Z,66.36
2023-11-21T01:04:41.346Z,64.90
2023-11-21T01:07:08.256Z,66.43
2023-11-21T01:09:34.862Z,67.56
2023-11-21T01:12:01.968Z,68.55
2023-11-21T01:14:28.771Z,68.11
2023-11-21T01:16:55.566Z,67.75
2023-11-21T01:19:22.343Z,69.05
2023-11-21T01:21:48.918Z,68.27
2023-11-21T01:24:15.591Z,67.41
2023-11-21T01:26:42.047Z,67.89
2023-11-21T01:29:08.656Z,67.68
2023-11-21T01:31:35.357Z,68.95
2023-11-21T01:34:02.066Z,68.72
2023-11-21T01:36:34.802Z,68.59
2023-11-21T01:39:01.505Z,69.07
2023-11-21T01:41:29.895Z,67.06
2023-11-21T01:43:57.145Z,68.15
2023-11-21T01:46:24.421Z,68.32
2023-11-21T01:48:51.396Z,68.12
2023-11-21T01:51:18.544Z,68.44
2023-11-21T01:53:47.811Z,69.64
2023-11-21T01:56:14.577Z,69.07
2023-11-21T01:58:42.228Z,70.25
2023-11-21T02:01:09.910Z,69.91
2023-11-21T02:03:36.635Z,70.47
2023-11-21T02:06:03.952Z,70.79
2023-11-21T02:08:30.432Z,71.16
2023-11-21T02:10:58.747Z,70.61
2023-11-21T02:13:25.557Z,71.32
2023-11-21T02:15:53.559Z,70.82
2023-11-21T02:18:20.267Z,71.20
2023-11-21T02:20:47.826Z,71.34
2023-11-21T02:23:14.535Z,69.68
2023-11-21T02:25:41.065Z,71.00
2023-11-21T02:28:08.061Z,71.56
2023-11-21T02:30:34.977Z,71.94
2023-11-21T02:33:02.752Z,71.19
2023-11-21T02:35:32.607Z,71.03
2023-11-21T02:37:59.568Z,71.54
2023-11-21T02:40:27.594Z,71.30
2023-11-21T02:42:54.431Z,69.54
2023-11-21T02:45:22.332Z,68.81
2023-11-21T02:47:50.493Z,69.00
2023-11-21T02:50:17.597Z,68.79
2023-11-21T02:52:44.280Z,69.95
2023-11-21T02:55:10.970Z,70.07
2023-11-21T02:57:37.523Z,69.89
2023-11-21T03:00:04.753Z,69.65
2023-11-21T03:02:31.470Z,69.29
2023-11-21T03:04:58.230Z,69.85
2023-11-21T03:07:24.739Z,69.26
2023-11-21T03:09:51.571Z,69.11
2023-11-21T03:12:18.189Z,70.07
2023-11-21T03:14:44.757Z,70.26
2023-11-21T03:17:11.357Z,70.71
2023-11-21T03:19:37.898Z,71.19
2023-11-21T03:22:05.404Z,71.53
2023-11-21T03:24:33.006Z,71.27
2023-11-21T03:26:59.519Z,70.77
2023-11-21T03:29:27.051Z,70.87
2023-11-21T03:31:53.646Z,70.35
2023-11-21T03:34:27.997Z,70.93
2023-11-21T03:36:54.988Z,70.96
2023-11-21T03:39:21.965Z,70.44
2023-11-21T03:41:48.555Z,70.08
2023-11-21T03:44:15.776Z,69.29
2023-11-21T03:46:42.338Z,70.64
2023-11-21T03:49:09.012Z,71.01
2023-11-21T03:51:35.547Z,70.66
2023-11-21T03:54:02.026Z,70.29
2023-11-21T03:56:28.508Z,70.43
2023-11-21T03:58:55.094Z,70.35
2023-11-21T04:01:25.554Z,69.53
2023-11-21T04:03:52.403Z,69.64
2023-11-21T04:06:19.115Z,70.14
2023-11-21T04:08:46.383Z,69.80
2023-11-21T04:11:13.635Z,70.48
2023-11-21T04:13:41.106Z,70.62
2023-11-21T04:16:08.826Z,70.47
2023-11-21T04:18:37.647Z,70.39
2023-11-21T04:21:05.023Z,70.14
2023-11-21T04:23:32.953Z,70.14
2023-11-21T04:26:00.062Z,70.50
2023-11-21T04:28:26.775Z,69.69
2023-11-21T04:30:53.284Z,70.60
2023-11-21T04:33:19.946Z,70.77
2023-11-21T04:35:47.381Z,70.68
2023-11-21T04:38:14.029Z,71.31
2023-11-21T04:40:40.628Z,71.58
2023-11-21T04:43:07.229Z,72.54
2023-11-21T04:45:33.771Z,72.73
2023-11-21T04:48:00.392Z,72.26
2023-11-21T04:50:29.832Z,72.32
2023-11-21T04:52:56.438Z,72.45
2023-11-21T04:55:23.020Z,72.63
2023-11-21T04:57:49.620Z,72.45
2023-11-21T05:00:17.274Z,72.75
2023-11-21T05:02:45.802Z,72.66
2023-11-21T05:05:13.345Z,72.35
2023-11-21T05:07:40.832Z,72.27
2023-11-21T05:10:17.360Z,71.86
2023-11-21T05:12:43.995Z,71.80
2023-11-21T05:15:11.489Z,72.10
2023-11-21T05:17:40.060Z,72.10
2023-11-21T05:20:09.670Z,72.18
2023-11-21T05:22:36.737Z,72.52
2023-11-21T05:25:04.887Z,72.51
2023-11-21T05:27:34.450Z,72.98
2023-11-21T05:30:04.071Z,72.64
2023-11-21T05:32:30.635Z,72.36
2023-11-21T05:34:57.260Z,72.86
2023-11-21T05:37:24.415Z,72.85
2023-11-21T05:39:50.950Z,72.94
2023-11-21T05:42:18.079Z,73.01
2023-11-21T05:44:44.694Z,72.41
2023-11-21T05:47:11.622Z,72.82
2023-11-21T05:49:38.216Z,73.08
2023-11-21T05:52:06.343Z,73.69
2023-11-21T05:54:33.725Z,73.90
2023-11-21T05:57:01.049Z,74.22
2023-11-21T05:59:27.650Z,73.92
2023-11-21T06:01:54.944Z,73.61
2023-11-21T06:04:25.218Z,73.83
2023-11-21T06:06:53.821Z,73.66
2023-11-21T06:09:21.723Z,73.43
2023-11-21T06:11:48.173Z,73.62
2023-11-21T06:14:14.676Z,73.66
2023-11-21T06:16:42.008Z,74.20
2023-11-21T06:19:08.527Z,74.03
2023-11-21T06:21:35.212Z,73.80
2023-11-21T06:24:02.652Z,73.71
2023-11-21T06:26:29.569Z,73.62
2023-11-21T06:29:04.265Z,73.11
2023-11-21T06:31:31.368Z,72.81
2023-11-21T06:33:58.986Z,71.88
2023-11-21T06:36:25.669Z,71.27
2023-11-21T06:38:52.204Z,71.00
2023-11-21T06:41:18.767Z,71.28
2023-11-21T06:43:47.868Z,70.67
2023-11-21T06:46:17.684Z,70.61
2023-11-21T06:48:44.695Z,70.22
2023-11-21T06:51:11.475Z,70.94
2023-11-21T06:53:39.555Z,70.43
2023-11-21T06:56:16.514Z,70.39
2023-11-21T06:58:43.165Z,70.61
2023-11-21T07:01:09.833Z,70.33
2023-11-21T07:03:38.695Z,70.44
2023-11-21T07:06:05.871Z,70.27
2023-11-21T07:08:32.689Z,70.36
2023-11-21T07:10:59.259Z,70.22
2023-11-21T07:13:25.857Z,69.43
2023-11-21T07:15:52.399Z,69.44
2023-11-21T07:18:19.410Z,69.93
2023-11-21T07:20:46.050Z,69.12
2023-11-21T07:23:12.563Z,68.49
2023-11-21T07:25:39.147Z,67.81
2023-11-21T07:28:06.639Z,68.70
2023-11-21T07:30:33.569Z,69.13
2023-11-21T07:33:00.261Z,68.72
2023-11-21T07:35:27.755Z,68.64
2023-11-21T07:37:54.332Z,68.40
2023-11-21T07:40:21.014Z,68.45
2023-11-21T07:42:47.528Z,67.49
2023-11-21T07:45:14.198Z,68.12
2023-11-21T07:47:41.067Z,67.69
2023-11-21T07:50:09.045Z,68.00
2023-11-21T07:52:35.842Z,68.30
2023-11-21T07:55:02.820Z,68.29
2023-11-21T07:57:29.445Z,68.20
2023-11-21T07:59:56.379Z,68.09
2023-11-21T08:02:22.995Z,68.92
2023-11-21T08:04:52.647Z,68.88
2023-11-21T08:07:19.279Z,68.48
2023-11-21T08:09:45.858Z,68.70
2023-11-21T08:12:12.447Z,68.79
2023-11-21T08:14:40.199Z,68.50
2023-11-21T08:17:07.225Z,68.52
2023-11-21T08:19:34.303Z,67.96
2023-11-21T08:22:00.901Z,69.15
2023-11-21T08:24:27.719Z,68.28
2023-11-21T08:26:55.343Z,68.08
2023-11-21T08:29:21.847Z,67.86
2023-11-21T08:31:48.426Z,68.71
2023-11-21T08:34:16.448Z,68.74
2023-11-21T08:36:44.369Z,67.94
2023-11-21T08:39:14.528Z,67.66
2023-11-21T08:41:41.207Z,67.67
2023-11-21T08:44:08.139Z,67.34
2023-11-21T08:46:35.437Z,67.28
2023-11-21T08:49:02.546Z,67.39
2023-11-21T08:51:29.008Z,67.84
2023-11-21T08:53:56.074Z,67.98
2023-11-21T08:56:22.676Z,67.68
2023-11-21T08:58:49.211Z,67.22
2023-11-21T09:01:15.768Z,66.49
2023-11-21T09:03:42.682Z,66.60
2023-11-21T09:06:11.026Z,66.60
2023-11-21T09:08:38.259Z,67.60
2023-11-21T09:11:04.962Z,67.25
2023-11-21T09:13:31.520Z,67.45
2023-11-21T09:15:58.042Z,66.98
2023-11-21T09:18:24.708Z,67.06
2023-11-21T09:20:51.274Z,67.22
2023-11-21T09:23:17.890Z,67.19
2023-11-21T09:25:47.411Z,67.14
2023-11-21T09:28:14.325Z,68.09
2023-11-21T09:30:40.832Z,66.82
2023-11-21T09:33:07.869Z,66.64
2023-11-21T09:35:34.429Z,66.79
2023-11-21T09:38:02.819Z,66.25
2023-11-21T09:40:29.799Z,65.95
2023-11-21T09:42:58.314Z,65.80
2023-11-21T09:45:28.894Z,66.77
2023-11-21T09:47:59.606Z,66.88
2023-11-21T09:50:29.716Z,66.37
2023-11-21T09:53:17.525Z,66.76
2023-11-21T09:55:45.665Z,66.39
2023-11-21T09:58:15.403Z,66.23
2023-11-21T10:00:47.122Z,66.18
2023-11-21T10:03:14.675Z,65.98
2023-11-21T10:05:43.372Z,65.28
2023-11-21T10:08:11.709Z,65.12
2023-11-21T10:10:42.513Z,65.19
2023-11-21T10:13:13.214Z,64.74
2023-11-21T10:15:42.523Z,64.49
2023-11-21T10:18:10.643Z,64.23
2023-11-21T10:20:39.135Z,63.86
2023-11-21T10:23:08.582Z,63.53
2023-11-21T10:25:36.932Z,63.37
2023-11-21T10:28:08.173Z,63.00
2023-11-21T10:30:39.292Z,63.06
2023-11-21T10:33:06.691Z,62.96
2023-11-21T10:35:52.611Z,62.97
2023-11-21T10:38:19.413Z,63.08
2023-11-21T10:40:47.754Z,62.55
2023-11-21T10:43:16.170Z,63.68
2023-11-21T10:45:43.969Z,61.85
2023-11-21T10:48:16.771Z,61.35
2023-11-21T10:50:44.986Z,61.67
2023-11-21T10:53:13.050Z,62.00
2023-11-21T10:55:40.068Z,62.39
2023-11-21T10:58:08.384Z,62.21
2023-11-21T11:00:35.098Z,61.56
2023-11-21T11:03:02.429Z,62.25
2023-11-21T11:05:31.250Z,63.09
2023-11-21T11:08:04.176Z,62.35
2023-11-21T11:10:30.976Z,61.70
2023-11-21T11:12:58.657Z,61.84
2023-11-21T11:15:26.639Z,62.04
2023-11-21T11:17:53.566Z,62.19
2023-11-21T11:20:23.160Z,63.08
2023-11-21T11:23:10.148Z,64.07
2023-11-21T11:25:54.939Z,64.47
2023-11-21T11:28:27.644Z,63.74
2023-11-21T11:31:35.662Z,63.71
2023-11-21T11:34:27.036Z,63.82
2023-11-21T11:37:03.619Z,63.26
2023-11-21T11:39:31.855Z,63.74
2023-11-21T11:42:02.540Z,63.43
2023-11-21T11:44:47.041Z,62.29
2023-11-21T11:47:24.278Z,61.81
2023-11-21T11:50:15.209Z,62.28
2023-11-21T11:52:46.909Z,62.29
2023-11-21T11:55:16.833Z,62.04
2023-11-21T11:57:44.196Z,61.64
2023-11-21T12:00:30.039Z,62.87
2023-11-21T12:03:01.016Z,62.53
2023-11-21T12:05:31.767Z,61.59
2023-11-21T12:07:59.368Z,61.31
2023-11-21T12:10:27.538Z,61.34
2023-11-21T12:12:56.944Z,60.74
2023-11-21T12:15:24.259Z,59.63
2023-11-21T12:17:51.448Z,59.09
2023-11-21T12:20:21.272Z,58.79
2023-11-21T12:23:06.903Z,58.45
2023-11-21T12:25:34.356Z,59.08
2023-11-21T12:28:02.129Z,60.00
2023-11-21T12:30:34.005Z,60.41
2023-11-21T12:33:02.224Z,58.67
2023-11-21T12:35:36.421Z,58.10
2023-11-21T12:38:06.177Z,58.08
2023-11-21T12:40:33.147Z,57.55
2023-11-21T12:43:02.381Z,57.76
2023-11-21T12:45:30.266Z,57.58
2023-11-21T12:48:12.267Z,57.40
2023-11-21T12:50:40.155Z,57.52
2023-11-21T12:53:10.054Z,57.95
2023-11-21T12:55:40.364Z,57.87
2023-11-21T12:58:12.375Z,58.16
2023-11-21T13:00:47.962Z,58.17
2023-11-21T13:03:24.998Z,58.89
2023-11-21T13:05:53.126Z,58.92
2023-11-21T13:08:23.483Z,59.06
2023-11-21T13:10:52.998Z,58.96
2023-11-21T13:13:23.654Z,59.33
2023-11-21T13:16:01.763Z,59.49
2023-11-21T13:18:29.558Z,59.52
2023-11-21T13:20:57.889Z,59.57
2023-11-21T13:23:25.148Z,60.00
2023-11-21T13:25:58.165Z,60.50
2023-11-21T13:28:33.377Z,60.65
2023-11-21T13:31:10.686Z,60.67
2023-11-21T13:33:44.128Z,60.48
2023-11-21T13:36:11.803Z,60.69
2023-11-21T13:38:43.357Z,61.13
2023-11-21T13:41:11.444Z,61.00
2023-11-21T13:43:38.566Z,61.35
2023-11-21T13:46:14.718Z,61.77
2023-11-21T13:48:51.861Z,61.73
2023-11-21T13:51:18.904Z,62.11
2023-11-21T13:53:49.116Z,61.74
2023-11-21T13:56:20.683Z,61.67
2023-11-21T13:58:53.792Z,61.26
2023-11-21T14:01:31.010Z,61.62
2023-11-21T14:04:32.588Z,61.46
2023-11-21T14:07:02.235Z,61.17
2023-11-21T14:09:34.054Z,61.14
2023-11-21T14:12:01.909Z,61.58
2023-11-21T14:14:31.995Z,62.00
2023-11-21T14:16:59.987Z,61.73
2023-11-21T14:19:32.777Z,61.86
2023-11-21T14:21:59.462Z,61.35
2023-11-21T14:24:26.662Z,61.56
2023-11-21T14:26:53.985Z,61.89
2023-11-21T14:29:21.589Z,60.84
2023-11-21T14:31:48.447Z,60.79
2023-11-21T14:34:18.708Z,60.08
2023-11-21T14:36:47.243Z,60.13
2023-11-21T14:39:27.991Z,59.85
2023-11-21T14:41:57.814Z,60.17
2023-11-21T14:44:33.954Z,60.09
2023-11-21T14:47:01.656Z,60.16
2023-11-21T14:49:34.627Z,60.15
2023-11-21T14:52:01.696Z,59.93
2023-11-21T14:54:38.452Z,59.35
2023-11-21T14:57:06.221Z,60.10
2023-11-21T14:59:33.515Z,60.44
2023-11-21T15:02:01.434Z,60.58
2023-11-21T15:04:37.842Z,60.65
2023-11-21T15:07:05.449Z,59.90
2023-11-21T15:09:32.672Z,59.32
2023-11-21T15:12:15.462Z,59.23
2023-11-21T15:14:53.328Z,59.89
2023-11-21T15:17:27.890Z,59.13
2023-11-21T15:19:55.397Z,59.65
2023-11-21T15:22:22.717Z,58.53
2023-11-21T15:24:50.499Z,58.56
2023-11-21T15:27:18.359Z,57.81
2023-11-21T15:29:45.282Z,57.70
2023-11-21T15:32:12.501Z,57.96
2023-11-21T15:34:39.591Z,58.78
2023-11-21T15:37:11.930Z,59.75
2023-11-21T15:39:40.098Z,60.60
2023-11-21T15:42:08.517Z,60.53
2023-11-21T15:44:35.396Z,61.75
2023-11-21T15:47:05.043Z,61.93
2023-11-21T15:49:37.894Z,60.92
2023-11-21T15:52:11.116Z,60.05
2023-11-21T15:54:38.287Z,59.44
2023-11-21T15:57:05.756Z,60.27
2023-11-21T15:59:34.166Z,59.05
2023-11-21T16:02:01.945Z,58.65
2023-11-21T16:04:29.384Z,58.45
2023-11-21T16:06:56.042Z,59.15
2023-11-21T16:09:31.855Z,59.03
2023-11-21T16:12:03.450Z,60.29
2023-11-21T16:14:36.739Z,60.76
2023-11-21T16:17:04.411Z,61.02
2023-11-21T16:19:31.310Z,61.20
2023-11-21T16:21:57.909Z,60.98
2023-11-21T16:24:25.265Z,62.00
2023-11-21T16:26:51.839Z,63.19
2023-11-21T16:29:18.477Z,63.22
2023-11-21T16:31:46.673Z,62.26
2023-11-21T16:34:21.001Z,63.03
2023-11-21T16:36:47.833Z,62.94
2023-11-21T16:39:14.858Z,62.77
2023-11-21T16:41:42.919Z,62.85
2023-11-21T16:44:20.026Z,63.58
2023-11-21T16:46:48.410Z,64.32
2023-11-21T16:49:15.053Z,63.74
2023-11-21T16:51:41.636Z,64.88
2023-11-21T16:54:08.162Z,65.61
2023-11-21T16:56:34.751Z,66.74
2023-11-21T16:59:01.303Z,67.18
2023-11-21T17:01:28.994Z,68.30
2023-11-21T17:03:58.960Z,67.91
2023-11-21T17:06:28.766Z,67.55
2023-11-21T17:08:56.520Z,67.98
2023-11-21T17:11:22.953Z,68.26
2023-11-21T17:13:49.732Z,68.90
2023-11-21T17:16:17.575Z,68.51
2023-11-21T17:18:44.129Z,68.93
2023-11-21T17:21:19.347Z,69.21
2023-11-21T17:23:49.599Z,69.40
2023-11-21T17:26:17.149Z,69.22
2023-11-21T17:28:44.466Z,68.42
2023-11-21T17:31:11.115Z,68.19
2023-11-21T17:33:37.787Z,67.92
2023-11-21T17:36:10.106Z,67.16
2023-11-21T17:38:38.124Z,67.96
2023-11-21T17:41:05.542Z,68.26
2023-11-21T17:43:40.465Z,68.07
2023-11-21T17:46:09.059Z,68.30
2023-11-21T17:48:37.711Z,68.37
2023-11-21T17:51:04.587Z,67.24
2023-11-21T17:53:31.144Z,68.95
2023-11-21T17:55:57.740Z,69.17
2023-11-21T17:58:24.369Z,69.31
2023-11-21T18:00:50.988Z,69.68
2023-11-21T18:03:17.665Z,69.89
2023-11-21T18:05:45.020Z,70.24
2023-11-21T18:08:11.607Z,70.07
2023-11-21T18:10:38.113Z,70.72
2023-11-21T18:13:04.677Z,70.96
2023-11-21T18:15:31.220Z,70.81
2023-11-21T18:17:58.138Z,70.81
2023-11-21T18:20:24.816Z,71.09
2023-11-21T18:22:51.434Z,70.02
2023-11-21T18:25:19.084Z,70.29
2023-11-21T18:27:45.677Z,69.92
2023-11-21T18:30:12.666Z,69.45
2023-11-21T18:32:39.380Z,67.86
2023-11-21T18:35:06.686Z,68.95
2023-11-21T18:37:33.512Z,68.57
2023-11-21T18:40:00.095Z,68.03
2023-11-21T18:42:29.051Z,68.66
2023-11-21T18:44:59.240Z,69.95
2023-11-21T18:47:27.962Z,70.53
2023-11-21T18:49:56.038Z,71.00
2023-11-21T18:52:24.372Z,70.06
2023-11-21T18:54:51.190Z,70.53
2023-11-21T18:57:17.848Z,70.78
2023-11-21T18:59:45.209Z,71.31
2023-11-21T19:02:15.248Z,71.59
2023-11-21T19:04:42.179Z,71.50
2023-11-21T19:07:08.782Z,71.64
2023-11-21T19:09:36.545Z,71.29
2023-11-21T19:12:05.902Z,71.85
2023-11-21T19:14:32.852Z,72.38
2023-11-21T19:17:00.273Z,72.16
2023-11-21T19:19:27.753Z,71.80
2023-11-21T19:21:54.990Z,72.36
2023-11-21T19:24:21.675Z,72.37
2023-11-21T19:26:48.408Z,71.89
2023-11-21T19:29:14.966Z,71.55
2023-11-21T19:31:41.594Z,71.75
2023-11-21T19:34:08.282Z,71.98
2023-11-21T19:36:39.555Z,72.16
2023-11-21T19:39:06.148Z,72.18
2023-11-21T19:41:32.691Z,71.81
2023-11-21T19:44:00.169Z,72.24
2023-11-21T19:46:26.959Z,71.49
2023-11-21T19:48:54.520Z,70.84
2023-11-21T19:51:22.940Z,70.56
2023-11-21T19:53:49.990Z,70.44
2023-11-21T19:56:16.850Z,69.83
2023-11-21T19:58:43.475Z,71.49
2023-11-21T20:01:13.169Z,72.15
2023-11-21T20:03:39.961Z,72.27
2023-11-21T20:06:07.568Z,72.64
2023-11-21T20:08:37.494Z,73.56
2023-11-21T20:11:05.519Z,73.86
2023-11-21T20:13:32.660Z,74.30
2023-11-21T20:15:59.176Z,74.16
2023-11-21T20:18:27.371Z,73.96
2023-11-21T20:20:54.309Z,74.03
2023-11-21T20:23:21.793Z,73.84
2023-11-21T20:25:48.623Z,73.29
2023-11-21T20:28:15.244Z,72.51
2023-11-21T20:30:41.903Z,71.07
2023-11-21T20:33:08.662Z,72.27
2023-11-21T20:35:38.822Z,72.56
2023-11-21T20:38:06.113Z,70.68
2023-11-21T20:40:32.674Z,72.41
2023-11-21T20:43:03.899Z,70.54
2023-11-21T20:45:31.345Z,70.89
2023-11-21T20:47:58.444Z,70.26
2023-11-21T20:50:25.489Z,70.68
2023-11-21T20:52:52.315Z,67.83
2023-11-21T20:55:20.969Z,69.95
2023-11-21T20:57:47.653Z,71.15
2023-11-21T21:00:16.553Z,71.46
2023-11-21T21:02:43.507Z,73.39
2023-11-21T21:05:10.993Z,71.74
2023-11-21T21:07:37.601Z,72.54
2023-11-21T21:10:04.318Z,74.32
2023-11-21T21:12:30.843Z,74.72
2023-11-21T21:14:57.386Z,73.30
2023-11-21T21:17:23.967Z,73.26
2023-11-21T21:19:50.565Z,73.62
2023-11-21T21:22:17.142Z,74.33
2023-11-21T21:24:43.621Z,74.94
2023-11-21T21:27:10.109Z,73.88
2023-11-21T21:29:36.627Z,73.81
2023-11-21T21:32:03.297Z,73.94
2023-11-21T21:34:29.844Z,74.11
2023-11-21T21:36:56.546Z,74.25
2023-11-21T21:39:23.382Z,73.94
2023-11-21T21:41:52.000Z,74.11
2023-11-21T21:44:18.715Z,71.39
2023-11-21T21:46:45.349Z,70.22
2023-11-21T21:49:12.606Z,68.89
2023-11-21T21:51:39.125Z,67.73
2023-11-21T21:54:08.139Z,67.64
2023-11-21T21:56:36.358Z,66.38
2023-11-21T21:59:02.949Z,66.22
2023-11-21T22:01:31.931Z,66.99
2023-11-21T22:04:01.047Z,68.04
2023-11-21T22:06:29.855Z,68.14
2023-11-21T22:08:57.384Z,67.40
2023-11-21T22:11:24.049Z,67.74
2023-11-21T22:13:50.633Z,68.01
2023-11-21T22:16:18.410Z,68.71
2023-11-21T22:18:45.019Z,69.04
2023-11-21T22:21:15.586Z,68.93
2023-11-21T22:23:42.060Z,68.85
2023-11-21T22:26:08.642Z,68.08
2023-11-21T22:28:36.195Z,66.96
2023-11-21T22:31:02.838Z,67.57
2023-11-21T22:33:29.333Z,67.69
2023-11-21T22:35:55.801Z,70.96
2023-11-21T22:38:22.365Z,68.99
2023-11-21T22:40:49.131Z,67.69
2023-11-21T22:43:17.751Z,67.70
2023-11-21T22:45:44.904Z,66.85
2023-11-21T22:48:11.893Z,66.18
2023-11-21T22:50:38.912Z,71.03
2023-11-21T22:53:05.463Z,71.53
2023-11-21T22:55:33.449Z,71.53
2023-11-21T22:58:00.658Z,69.63
2023-11-21T23:00:30.723Z,70.37
2023-11-21T23:02:58.345Z,68.35
2023-11-21T23:05:24.967Z,69.13
2023-11-21T23:07:51.681Z,69.61
2023-11-21T23:10:19.288Z,69.97
2023-11-21T23:12:45.947Z,69.21
2023-11-21T23:15:12.452Z,68.24
2023-11-21T23:17:41.393Z,66.78
2023-11-21T23:20:11.075Z,69.62
2023-11-21T23:22:41.261Z,69.15
2023-11-21T23:25:09.644Z,69.73
2023-11-21T23:27:36.196Z,70.04
2023-11-21T23:30:02.837Z,69.03
2023-11-21T23:32:29.501Z,69.43
2023-11-21T23:34:56.125Z,69.42
2023-11-21T23:37:22.933Z,68.29
2023-11-21T23:39:49.550Z,69.34
2023-11-21T23:42:17.495Z,68.34
2023-11-21T23:44:43.923Z,68.04
2023-11-21T23:47:10.973Z,68.71
2023-11-21T23:49:37.738Z,68.02
2023-11-21T23:52:04.539Z,69.45
2023-11-21T23:54:31.169Z,68.37
2023-11-21T23:56:59.105Z,67.23
2023-11-21T23:59:26.368Z,69.46
